West Carrollton, Ohio
Current Conditions -  °F | °C
As of 12:53 PM on Friday 28 Nov 2014 (Local Time) from KMGY Reporting Station
Broken Clouds Broken Clouds  
Wind Chill: 23°   Ceiling: 10000
Heat Index: 31°   Visibility: 10mi
Dew Point: 21°   Wind: 8mph
Humidity: 67%   Direction: 190°S
Pressure: 30.27"   Gusts: NA
Location:  39.664°N, 84.2415°W
Report Text: KMGY 281753Z AUTO 19007KT 10SM FEW029 FEW042 BKN100 M01/M06 A3027 RMK AO2 SLP261 T10061061 11006 21061 58026
Loading
Personal Weather Stations






























Interactive Weather Map New forecast layout! Learn more

10-Day Weather Forecast

Advertisements
Track Severe Weather on mobile